Time;durP1;ratioP1;P1;durP2;ratioP2;P2;SDS_P1;SDS_P2;PMS_P1;PMS_P2;Temp;Humidity;BMP_temperature;BMP_pressure;BME280_temperature;BME280_humidity;BME280_pressure;Samples;Min_cycle;Max_cycle;Signal;HPM_P1;HPM_P2
2021/08/17 00:01:26;;;;;;;;;;;;;;;20.19;52.78;100597.53;5115826;28;1013;-52
2021/08/17 00:03:52;;;;;;;;;;;;;;;20.71;53.83;100602.94;5116471;28;831;-56
2021/08/17 00:06:17;;;;;;;;;;;;;;;20.99;54.94;100600.19;5119065;28;1095;-56
2021/08/17 00:08:44;;;;;;;;;;;;;;;21.24;55.21;100592.47;5120726;28;902;-56
2021/08/17 00:11:10;;;;;;;;;;;;;;;21.46;55.77;100594.47;5120667;28;807;-56
2021/08/17 00:13:35;;;;;;;;;;;;;;;21.61;56.04;100598.88;5120324;28;1975;-48
2021/08/17 00:16:00;;;;;;;;;;;;;;;21.91;55.46;100594.56;5120217;28;821;-55
2021/08/17 00:18:26;;;;;;;;;;;;;;;21.67;55.84;100597.63;5118816;28;1161;-55
2021/08/17 00:20:51;;;;;;;;;;;;;;;20.93;54.63;100595.88;5119776;28;783;-55
2021/08/17 00:23:17;;;;;;;;;;;;;;;20.57;51.87;100591.84;5120339;28;759;-54
2021/08/17 00:25:43;;;;;;;;;;;;;;;20.06;49.32;100590.00;5120570;28;790;-56
2021/08/17 00:28:09;;;;;;;;;;;;;;;19.61;47.42;100590.41;5119601;28;775;-50
2021/08/17 00:30:34;;;;;;;;;;;;;;;19.19;46.04;100594.84;5119835;28;763;-49
2021/08/17 00:33:00;;;;;;;;;;;;;;;18.98;46.03;100597.84;5119281;28;1009;-55
2021/08/17 00:35:25;;;;;;;;;;;;;;;19.65;47.48;100586.72;5119768;28;1973;-46
2021/08/17 00:37:51;;;;;;;;;;;;;;;19.92;50.73;100584.44;5120023;28;810;-55
2021/08/17 00:40:17;;;;;;;;;;;;;;;20.31;52.95;100580.44;5120367;28;754;-48
2021/08/17 00:42:42;;;;;;;;;;;;;;;20.80;53.32;100586.47;5119219;28;847;-56
2021/08/17 00:45:18;;;;;;;;;;;;;;;20.99;54.45;100580.84;5119885;28;754;-55
2021/08/17 00:47:44;;;;;;;;;;;;;;;21.18;54.80;100576.00;5119361;28;938;-47
2021/08/17 00:50:09;;;;;;;;;;;;;;;21.49;54.68;100569.78;5119309;28;850;-46
2021/08/17 00:52:35;;;;;;;;;;;;;;;21.50;55.50;100571.44;5119471;28;787;-48
2021/08/17 00:55:00;;;;;;;;;;;;;;;21.60;55.87;100569.56;5100647;28;1913;-55
2021/08/17 00:57:26;;;;;;;;;;;;;;;21.94;55.19;100568.22;5119292;28;791;-48
2021/08/17 00:59:51;;;;;;;;;;;;;;;21.95;55.69;100567.06;5119605;28;787;-55
2021/08/17 01:02:16;;;;;;;;;;;;;;;21.73;55.80;100565.94;5118902;28;958;-56
2021/08/17 01:04:45;;;;;;;;;;;;;;;21.19;54.40;100566.56;5119000;28;807;-55
2021/08/17 01:07:11;;;;;;;;;;;;;;;20.91;51.67;100562.22;5119037;28;1150;-55
2021/08/17 01:09:37;;;;;;;;;;;;;;;20.38;49.90;100563.50;5119537;28;764;-49
2021/08/17 01:12:02;;;;;;;;;;;;;;;20.28;48.18;100558.97;5119594;28;760;-54
2021/08/17 01:14:28;;;;;;;;;;;;;;;19.80;46.96;100562.84;5118866;28;1902;-50
2021/08/17 01:16:53;;;;;;;;;;;;;;;19.44;46.36;100569.66;5117460;28;958;-54
2021/08/17 01:19:20;;;;;;;;;;;;;;;19.45;45.71;100571.31;5119091;28;744;-53
2021/08/17 01:21:46;;;;;;;;;;;;;;;19.18;45.83;100565.63;5119502;28;825;-48
2021/08/17 01:24:11;;;;;;;;;;;;;;;19.59;48.57;100570.59;5118592;28;835;-53
2021/08/17 01:26:37;;;;;;;;;;;;;;;19.89;51.81;100572.06;5119668;28;783;-54
2021/08/17 01:29:02;;;;;;;;;;;;;;;20.32;53.02;100569.09;5118602;28;882;-55
2021/08/17 01:31:28;;;;;;;;;;;;;;;20.30;55.08;100565.84;5118585;28;950;-47
2021/08/17 01:33:53;;;;;;;;;;;;;;;20.70;55.55;100561.81;5100121;28;1918;-55
2021/08/17 01:36:18;;;;;;;;;;;;;;;21.23;54.90;100555.72;5118387;28;831;-49
2021/08/17 01:38:45;;;;;;;;;;;;;;;21.39;55.22;100558.94;5118720;28;803;-51
2021/08/17 01:41:10;;;;;;;;;;;;;;;21.46;55.77;100559.34;5118847;28;831;-48
2021/08/17 01:43:36;;;;;;;;;;;;;;;21.74;55.27;100547.38;5117911;28;752;-55
2021/08/17 01:46:01;;;;;;;;;;;;;;;21.83;55.65;100551.84;5118355;28;764;-53
2021/08/17 01:48:28;;;;;;;;;;;;;;;21.90;55.76;100561.69;5118200;28;958;-51
2021/08/17 01:50:53;;;;;;;;;;;;;;;21.84;55.01;100559.03;5100001;28;808;-53
2021/08/17 01:53:19;;;;;;;;;;;;;;;21.03;54.40;100552.28;5118287;28;831;-47
2021/08/17 01:55:45;;;;;;;;;;;;;;;20.67;51.57;100554.94;5118422;28;1909;-48
2021/08/17 01:58:10;;;;;;;;;;;;;;;20.12;49.12;100550.97;5118228;28;832;-53
2021/08/17 02:00:35;;;;;;;;;;;;;;;20.04;46.03;100551.66;5117981;28;755;-54
2021/08/17 02:03:01;;;;;;;;;;;;;;;19.53;44.78;100545.03;5117791;28;1009;-53
2021/08/17 02:05:26;;;;;;;;;;;;;;;19.42;44.82;100547.09;5117886;28;869;-54
2021/08/17 02:07:53;;;;;;;;;;;;;;;19.47;48.99;100552.56;5118118;28;1086;-51
2021/08/17 02:10:19;;;;;;;;;;;;;;;19.85;51.92;100550.88;5118503;28;827;-47
2021/08/17 02:12:44;;;;;;;;;;;;;;;20.32;53.09;100543.44;5117299;28;810;-49
2021/08/17 02:15:10;;;;;;;;;;;;;;;20.68;53.80;100545.56;5117820;28;1985;-54
2021/08/17 02:17:35;;;;;;;;;;;;;;;20.81;55.05;100538.38;5117596;28;1001;-47
2021/08/17 02:20:01;;;;;;;;;;;;;;;21.19;54.91;100536.16;5117679;28;719;-53
2021/08/17 02:22:26;;;;;;;;;;;;;;;21.19;55.70;100533.38;5117875;28;842;-53
2021/08/17 02:24:52;;;;;;;;;;;;;;;21.26;56.25;100537.69;5117616;28;768;-55
2021/08/17 02:27:17;;;;;;;;;;;;;;;21.57;55.90;100537.81;5117255;28;787;-55
2021/08/17 02:29:42;;;;;;;;;;;;;;;21.84;55.50;100536.88;5117620;28;756;-55
2021/08/17 02:32:08;;;;;;;;;;;;;;;21.75;56.05;100533.22;5117401;28;950;-56
2021/08/17 02:34:33;;;;;;;;;;;;;;;21.68;55.83;100538.38;5116832;28;1909;-56
2021/08/17 02:36:59;;;;;;;;;;;;;;;21.55;53.46;100531.78;5117909;28;826;-54
2021/08/17 02:39:24;;;;;;;;;;;;;;;20.59;51.67;100531.59;5117544;28;815;-46
2021/08/17 02:41:49;;;;;;;;;;;;;;;20.21;49.13;100525.44;5117014;28;823;-54
2021/08/17 02:44:15;;;;;;;;;;;;;;;19.51;47.46;100527.13;5117219;28;751;-47
2021/08/17 02:46:40;;;;;;;;;;;;;;;19.07;45.71;100527.19;5117616;28;966;-46
2021/08/17 02:49:06;;;;;;;;;;;;;;;19.10;44.46;100529.34;5116883;28;803;-46
2021/08/17 02:51:31;;;;;;;;;;;;;;;19.08;46.92;100536.28;5117243;28;807;-52
2021/08/17 02:53:57;;;;;;;;;;;;;;;19.68;49.83;100530.16;5117333;28;1971;-54
2021/08/17 02:56:22;;;;;;;;;;;;;;;20.10;52.13;100533.88;5116981;28;819;-55
2021/08/17 02:58:47;;;;;;;;;;;;;;;20.43;53.42;100533.84;5117253;28;767;-48
2021/08/17 03:01:13;;;;;;;;;;;;;;;20.60;54.81;100537.94;5116844;28;1059;-55
2021/08/17 03:03:38;;;;;;;;;;;;;;;21.04;54.76;100528.19;5116364;28;847;-46
2021/08/17 03:06:07;;;;;;;;;;;;;;;21.12;55.62;100527.47;5117191;28;726;-53
2021/08/17 03:08:32;;;;;;;;;;;;;;;21.36;55.67;100538.28;5116914;28;1235;-55
2021/08/17 03:10:57;;;;;;;;;;;;;;;21.46;56.11;100533.63;5116976;28;811;-50
2021/08/17 03:13:23;;;;;;;;;;;;;;;21.78;55.72;100543.66;5116941;28;739;-53
2021/08/17 03:15:48;;;;;;;;;;;;;;;21.88;55.63;100537.88;5116697;28;1984;-56
2021/08/17 03:18:14;;;;;;;;;;;;;;;21.71;55.36;100540.53;5116040;28;962;-55
2021/08/17 03:20:39;;;;;;;;;;;;;;;21.09;53.77;100539.16;5117255;28;775;-56
2021/08/17 03:23:05;;;;;;;;;;;;;;;20.58;51.22;100545.72;5116797;28;752;-48
2021/08/17 03:25:30;;;;;;;;;;;;;;;20.08;48.53;100544.41;5116637;28;859;-57
2021/08/17 03:27:56;;;;;;;;;;;;;;;19.55;46.73;100548.28;5098960;28;1415;-47
2021/08/17 03:30:21;;;;;;;;;;;;;;;19.21;45.56;100554.00;5116390;28;759;-53
2021/08/17 03:32:47;;;;;;;;;;;;;;;19.36;46.57;100555.75;5116029;28;961;-56
2021/08/17 03:35:12;;;;;;;;;;;;;;;19.83;50.18;100554.75;5116603;28;1972;-56
2021/08/17 03:37:38;;;;;;;;;;;;;;;20.17;52.47;100553.66;5116628;28;954;-49
2021/08/17 03:40:14;;;;;;;;;;;;;;;20.78;53.25;100550.84;5115640;28;779;-54
2021/08/17 03:42:40;;;;;;;;;;;;;;;20.85;55.21;100550.44;5116340;28;803;-46
2021/08/17 03:45:08;;;;;;;;;;;;;;;21.24;55.48;100551.00;5082016;28;808;-45
2021/08/17 03:47:34;;;;;;;;;;;;;;;21.51;55.60;100559.22;5115797;28;1005;-57
2021/08/17 03:49:59;;;;;;;;;;;;;;;21.74;55.63;100570.38;5116840;28;881;-56
2021/08/17 03:52:25;;;;;;;;;;;;;;;21.82;55.53;100561.28;5116420;28;819;-59
2021/08/17 03:54:51;;;;;;;;;;;;;;;21.80;55.71;100558.03;5115210;28;1918;-57
2021/08/17 03:57:16;;;;;;;;;;;;;;;21.35;54.65;100560.72;5116512;28;890;-57
2021/08/17 03:59:42;;;;;;;;;;;;;;;20.77;52.12;100551.97;5116372;28;818;-55
2021/08/17 04:02:08;;;;;;;;;;;;;;;20.35;49.08;100559.41;5116070;28;1082;-54
2021/08/17 04:04:34;;;;;;;;;;;;;;;19.70;47.76;100554.66;5116261;28;846;-55
2021/08/17 04:07:02;;;;;;;;;;;;;;;19.28;46.06;100558.06;5115928;28;1034;-54
2021/08/17 04:09:28;;;;;;;;;;;;;;;19.53;45.79;100555.22;5116878;28;798;-46
2021/08/17 04:11:53;;;;;;;;;;;;;;;19.81;50.04;100554.25;5116128;28;818;-56
2021/08/17 04:14:18;;;;;;;;;;;;;;;20.18;52.61;100543.41;5116242;28;1906;-48
2021/08/17 04:16:44;;;;;;;;;;;;;;;20.43;54.41;100544.88;5115905;28;891;-56
2021/08/17 04:19:09;;;;;;;;;;;;;;;21.12;54.33;100549.59;5115967;28;798;-56
2021/08/17 04:21:35;;;;;;;;;;;;;;;21.15;55.22;100543.47;5116189;28;863;-50
2021/08/17 04:24:00;;;;;;;;;;;;;;;21.44;55.42;100545.00;5116598;28;811;-54
2021/08/17 04:26:26;;;;;;;;;;;;;;;21.66;55.53;100535.13;5116000;28;771;-46
2021/08/17 04:28:51;;;;;;;;;;;;;;;21.75;55.67;100544.28;5116350;28;811;-56
2021/08/17 04:31:16;;;;;;;;;;;;;;;21.77;55.78;100547.59;5115842;28;935;-56
2021/08/17 04:33:45;;;;;;;;;;;;;;;21.44;55.38;100545.00;5115481;28;787;-56
2021/08/17 04:36:10;;;;;;;;;;;;;;;20.84;53.19;100544.09;5116486;28;807;-56
2021/08/17 04:38:35;;;;;;;;;;;;;;;20.25;50.39;100545.78;5116516;28;748;-55
2021/08/17 04:41:01;;;;;;;;;;;;;;;19.82;47.92;100546.78;5116041;28;798;-55
2021/08/17 04:43:26;;;;;;;;;;;;;;;19.53;46.01;100553.28;5116163;28;791;-55
2021/08/17 04:45:53;;;;;;;;;;;;;;;19.31;45.78;100551.13;5115798;28;795;-54
2021/08/17 04:48:18;;;;;;;;;;;;;;;19.48;47.98;100547.84;5115609;28;930;-55
2021/08/17 04:50:44;;;;;;;;;;;;;;;19.95;51.48;100539.66;5116521;28;894;-55
2021/08/17 04:53:09;;;;;;;;;;;;;;;20.26;53.65;100542.72;5119675;28;787;-54
2021/08/17 04:55:35;;;;;;;;;;;;;;;20.51;55.38;100535.09;5119225;28;1988;-55
2021/08/17 04:58:00;;;;;;;;;;;;;;;20.94;55.60;100545.00;5119537;28;875;-54
2021/08/17 05:00:26;;;;;;;;;;;;;;;21.41;55.40;100551.16;5119320;28;767;-54
2021/08/17 05:02:52;;;;;;;;;;;;;;;21.61;55.51;100554.63;5118742;28;950;-58
2021/08/17 05:05:18;;;;;;;;;;;;;;;21.55;56.09;100556.69;5119975;28;755;-57
2021/08/17 05:07:43;;;;;;;;;;;;;;;21.69;55.77;100559.41;5119005;28;1003;-56
2021/08/17 05:10:09;;;;;;;;;;;;;;;21.42;54.92;100552.81;5119241;28;739;-55
2021/08/17 05:12:35;;;;;;;;;;;;;;;20.78;53.10;100552.81;5119177;28;798;-55
2021/08/17 05:15:01;;;;;;;;;;;;;;;20.47;50.21;100551.44;5119334;28;1909;-52
2021/08/17 05:17:26;;;;;;;;;;;;;;;19.90;48.24;100553.56;5118583;28;954;-54
2021/08/17 05:19:51;;;;;;;;;;;;;;;19.63;46.10;100547.59;5119264;28;846;-57
2021/08/17 05:22:17;;;;;;;;;;;;;;;19.52;44.63;100556.31;5118977;28;791;-56
2021/08/17 05:24:42;;;;;;;;;;;;;;;19.16;45.79;100557.66;5118868;28;767;-57
2021/08/17 05:27:08;;;;;;;;;;;;;;;19.89;49.20;100544.47;5118838;28;835;-51
2021/08/17 05:29:33;;;;;;;;;;;;;;;20.28;53.33;100553.47;5118955;28;898;-58
2021/08/17 05:31:59;;;;;;;;;;;;;;;20.60;55.61;100554.53;5118179;28;1013;-58
2021/08/17 05:34:24;;;;;;;;;;;;;;;21.17;56.00;100546.72;5119085;28;1905;-56
2021/08/17 05:36:50;;;;;;;;;;;;;;;21.56;55.92;100551.97;5118502;28;859;-56
2021/08/17 05:39:15;;;;;;;;;;;;;;;21.95;55.63;100553.22;5118594;28;755;-55
2021/08/17 05:41:41;;;;;;;;;;;;;;;21.97;56.16;100553.75;5118699;28;827;-57
2021/08/17 05:44:06;;;;;;;;;;;;;;;22.14;56.26;100556.59;5118635;28;847;-57
2021/08/17 05:46:32;;;;;;;;;;;;;;;21.64;55.87;100563.13;5118126;28;957;-55
2021/08/17 05:48:57;;;;;;;;;;;;;;;21.17;53.61;100566.06;5118535;28;819;-56
2021/08/17 05:51:22;;;;;;;;;;;;;;;20.59;51.62;100558.41;5118568;28;779;-58
2021/08/17 05:53:48;;;;;;;;;;;;;;;20.18;48.99;100559.97;5118083;28;1976;-58
2021/08/17 05:56:13;;;;;;;;;;;;;;;19.73;47.41;100559.63;5118480;28;747;-57
2021/08/17 05:58:39;;;;;;;;;;;;;;;19.26;46.57;100564.97;5118291;28;751;-45
2021/08/17 06:01:04;;;;;;;;;;;;;;;19.37;45.63;100566.47;5118204;28;819;-50
2021/08/17 06:03:30;;;;;;;;;;;;;;;19.62;47.00;100558.94;5116837;28;938;-57
2021/08/17 06:05:59;;;;;;;;;;;;;;;19.95;49.25;100562.59;5118302;28;888;-56
2021/08/17 06:08:24;;;;;;;;;;;;;;;20.19;52.32;100564.38;5117781;28;1039;-55
2021/08/17 06:10:50;;;;;;;;;;;;;;;20.74;54.26;100566.41;5118205;28;810;-56
2021/08/17 06:13:15;;;;;;;;;;;;;;;20.82;56.13;100567.66;5118147;28;851;-50
2021/08/17 06:15:41;;;;;;;;;;;;;;;21.20;56.33;100567.41;5117643;28;1905;-56
2021/08/17 06:18:08;;;;;;;;;;;;;;;21.48;56.42;100567.34;5118100;28;1065;-57
2021/08/17 06:20:34;;;;;;;;;;;;;;;21.61;56.73;100565.69;5118454;28;815;-58
2021/08/17 06:22:59;;;;;;;;;;;;;;;21.11;56.41;100569.25;5117948;28;747;-57
2021/08/17 06:25:25;;;;;;;;;;;;;;;20.76;54.00;100564.19;5118146;28;770;-58
2021/08/17 06:27:50;;;;;;;;;;;;;;;20.42;51.00;100570.03;5118102;28;767;-48
2021/08/17 06:30:16;;;;;;;;;;;;;;;19.93;49.19;100559.28;5117585;28;763;-57
2021/08/17 06:32:41;;;;;;;;;;;;;;;19.53;47.55;100566.25;5118088;28;1014;-57
2021/08/17 06:35:07;;;;;;;;;;;;;;;19.47;46.46;100569.09;5118088;28;1985;-57
2021/08/17 06:37:32;;;;;;;;;;;;;;;19.42;45.99;100571.91;5117866;28;815;-59
2021/08/17 06:39:58;;;;;;;;;;;;;;;19.15;47.50;100567.88;5117466;28;882;-55
2021/08/17 06:42:23;;;;;;;;;;;;;;;19.47;48.32;100569.09;5117616;28;823;-57
2021/08/17 06:44:49;;;;;;;;;;;;;;;19.66;50.34;100555.28;5116745;28;1178;-57
2021/08/17 06:47:14;;;;;;;;;;;;;;;20.05;51.94;100561.59;5116982;28;953;-58
2021/08/17 06:49:39;;;;;;;;;;;;;;;20.47;53.88;100562.47;5117566;28;795;-57
2021/08/17 06:52:05;;;;;;;;;;;;;;;21.01;55.19;100564.75;5117687;28;736;-55
2021/08/17 06:54:30;;;;;;;;;;;;;;;;;;5117068;28;1921;-46
2021/08/17 06:56:56;;;;;;;;;;;;;;;21.53;56.38;100557.00;5117557;28;739;-54
2021/08/17 06:59:21;;;;;;;;;;;;;;;21.76;56.60;100559.78;5117212;28;827;-54
2021/08/17 07:01:47;;;;;;;;;;;;;;;21.41;56.24;100559.47;5116749;28;950;-54
2021/08/17 07:04:12;;;;;;;;;;;;;;;21.03;54.46;100551.47;5117652;28;795;-55
2021/08/17 07:06:37;;;;;;;;;;;;;;;20.75;52.33;100561.69;5117279;28;1082;-54
2021/08/17 07:09:03;;;;;;;;;;;;;;;20.47;50.52;100565.25;5116665;28;803;-53
2021/08/17 07:11:29;;;;;;;;;;;;;;;20.26;48.95;100556.53;5117653;28;755;-52
2021/08/17 07:13:54;;;;;;;;;;;;;;;20.13;48.15;100560.06;5116993;28;1967;-57
2021/08/17 07:16:20;;;;;;;;;;;;;;;19.85;47.77;100561.94;5116046;28;942;-55
2021/08/17 07:18:45;;;;;;;;;;;;;;;19.76;47.69;100559.00;5116971;28;740;-56
2021/08/17 07:21:11;;;;;;;;;;;;;;;20.09;47.85;100557.09;5116895;28;782;-57
2021/08/17 07:23:36;;;;;;;;;;;;;;;20.17;48.63;100555.56;5116618;28;1107;-56
2021/08/17 07:26:02;;;;;;;;;;;;;;;20.28;49.56;100551.50;5117297;28;1292;-56
2021/08/17 07:28:27;;;;;;;;;;;;;;;20.37;50.31;100561.84;5116648;28;799;-52
2021/08/17 07:30:53;;;;;;;;;;;;;;;20.03;51.66;100558.28;5116603;28;835;-55
2021/08/17 07:33:18;;;;;;;;;;;;;;;20.26;51.54;100555.69;5116348;28;1005;-50
2021/08/17 07:35:44;;;;;;;;;;;;;;;20.08;52.23;100560.16;5116846;28;1909;-54
2021/08/17 07:38:09;;;;;;;;;;;;;;;20.14;52.28;100551.47;5116797;28;768;-55
2021/08/17 07:40:35;;;;;;;;;;;;;;;20.14;52.48;100554.22;5116781;28;798;-56
2021/08/17 07:43:00;;;;;;;;;;;;;;;20.11;52.76;100559.56;5117055;28;739;-57
2021/08/17 07:45:25;;;;;;;;;;;;;;;20.20;52.57;100554.16;5116448;28;819;-56
2021/08/17 07:47:51;;;;;;;;;;;;;;;20.32;52.26;100555.28;5116425;28;962;-57
2021/08/17 07:50:16;;;;;;;;;;;;;;;20.29;52.64;100549.56;5116216;28;1273;-47
2021/08/17 07:52:42;;;;;;;;;;;;;;;20.00;53.36;100551.44;5116770;28;866;-58
2021/08/17 07:55:08;;;;;;;;;;;;;;;20.29;52.58;100546.81;5117206;28;1910;-47
2021/08/17 07:57:33;;;;;;;;;;;;;;;20.11;53.24;100549.31;5116816;28;743;-56
2021/08/17 07:59:59;;;;;;;;;;;;;;;20.34;52.74;100549.47;5116117;28;831;-47
2021/08/17 08:02:24;;;;;;;;;;;;;;;20.40;52.58;100547.44;5116597;28;1092;-61
2021/08/17 08:04:50;;;;;;;;;;;;;;;20.24;52.94;100541.38;5116674;28;851;-58
2021/08/17 08:07:15;;;;;;;;;;;;;;;20.67;51.94;100543.88;5116338;28;1008;-58
2021/08/17 08:09:41;;;;;;;;;;;;;;;20.27;52.92;100543.53;5116934;28;828;-58
2021/08/17 08:12:07;;;;;;;;;;;;;;;20.41;52.76;100543.53;5116444;28;735;-56
2021/08/17 08:14:33;;;;;;;;;;;;;;;20.49;52.52;100537.31;5116668;28;1980;-46
2021/08/17 08:16:58;;;;;;;;;;;;;;;20.34;52.97;100546.72;5116562;28;970;-46
2021/08/17 08:19:24;;;;;;;;;;;;;;;20.18;53.39;100543.41;5116475;28;826;-46
2021/08/17 08:21:49;;;;;;;;;;;;;;;20.29;53.27;100549.56;5116248;28;755;-54
2021/08/17 08:24:15;;;;;;;;;;;;;;;20.43;52.79;100544.88;5116159;28;866;-55
2021/08/17 08:26:40;;;;;;;;;;;;;;;20.37;52.90;100546.13;5118553;28;831;-56
2021/08/17 08:29:06;;;;;;;;;;;;;;;20.34;53.15;100542.03;5120195;28;858;-44
2021/08/17 08:31:31;;;;;;;;;;;;;;;20.70;52.10;100536.94;5119645;28;942;-54
2021/08/17 08:33:57;;;;;;;;;;;;;;;20.57;52.43;100538.56;5120444;28;1910;-46
2021/08/17 08:36:22;;;;;;;;;;;;;;;20.60;52.45;100546.22;5120123;28;811;-56
2021/08/17 08:38:47;;;;;;;;;;;;;;;20.64;52.29;100545.31;5119814;28;798;-48
2021/08/17 08:41:16;;;;;;;;;;;;;;;20.55;52.49;100549.09;5120394;28;783;-56
2021/08/17 08:43:44;;;;;;;;;;;;;;;20.64;52.35;100545.31;5119768;28;836;-53
2021/08/17 08:46:16;;;;;;;;;;;;;;;20.78;51.94;100552.81;5119913;28;962;-51
2021/08/17 08:48:45;;;;;;;;;;;;;;;20.73;52.04;100547.38;5120400;28;799;-54
2021/08/17 08:51:10;;;;;;;;;;;;;;;20.49;52.79;100551.13;5119438;28;775;-45
2021/08/17 08:53:36;;;;;;;;;;;;;;;20.55;52.62;100546.31;5101541;28;847;-53
2021/08/17 08:56:01;;;;;;;;;;;;;;;20.56;52.68;100554.31;5120573;28;1922;-49
2021/08/17 08:58:27;;;;;;;;;;;;;;;20.86;51.85;100557.63;5119684;28;814;-47
2021/08/17 09:00:52;;;;;;;;;;;;;;;20.70;52.33;100553.53;5119482;28;815;-55
2021/08/17 09:03:18;;;;;;;;;;;;;;;20.75;52.11;100548.72;5101050;28;998;-57
2021/08/17 09:05:52;;;;;;;;;;;;;;;20.52;52.77;100551.34;5101314;28;760;-56
2021/08/17 09:08:23;;;;;;;;;;;;;;;20.58;52.62;100549.31;5119497;28;1242;-55
2021/08/17 09:10:48;;;;;;;;;;;;;;;20.58;52.64;100557.59;5119512;28;972;-56
2021/08/17 09:13:14;;;;;;;;;;;;;;;20.26;53.65;100551.00;5119219;28;820;-55
2021/08/17 09:15:39;;;;;;;;;;;;;;;20.60;52.86;100554.53;5119360;28;1917;-52
2021/08/17 09:18:05;;;;;;;;;;;;;;;20.46;53.13;100551.75;5119174;28;943;-58
2021/08/17 09:20:36;;;;;;;;;;;;;;;20.67;52.54;100554.94;5118926;28;816;-56
2021/08/17 09:23:20;;;;;;;;;;;;;;;21.03;51.60;100557.00;5119196;28;795;-53
2021/08/17 09:25:45;;;;;;;;;;;;;;;20.70;52.34;100548.81;5119421;28;727;-55
2021/08/17 09:28:43;;;;;;;;;;;;;;;20.70;52.46;100550.78;5118727;28;798;-53
2021/08/17 09:31:27;;;;;;;;;;;;;;;20.87;52.11;100552.91;5063344;28;1381;-52
2021/08/17 09:33:53;;;;;;;;;;;;;;;20.76;52.30;100546.75;5099399;28;767;-53
2021/08/17 09:36:18;;;;;;;;;;;;;;;20.75;52.26;100551.47;5107890;28;1918;-52
2021/08/17 09:38:44;;;;;;;;;;;;;;;20.57;52.91;100533.03;5099864;28;1330;-55
2021/08/17 09:41:22;;;;;;;;;;;;;;;20.65;52.61;100551.63;5118710;28;787;-48
2021/08/17 09:43:57;;;;;;;;;;;;;;;20.72;52.42;100537.44;5118525;28;751;-46
2021/08/17 09:46:27;;;;;;;;;;;;;;;20.48;53.27;100546.72;5118888;28;950;-53
2021/08/17 09:48:53;;;;;;;;;;;;;;;20.59;53.03;100542.63;5118911;28;751;-54
2021/08/17 09:51:34;;;;;;;;;;;;;;;20.74;52.42;100535.22;5118436;28;791;-54
2021/08/17 09:54:12;;;;;;;;;;;;;;;20.69;52.65;100536.13;5119099;28;1972;-46
2021/08/17 09:56:37;;;;;;;;;;;;;;;20.73;52.35;100526.09;5118626;28;946;-49
2021/08/17 09:59:04;;;;;;;;;;;;;;;20.66;52.78;100522.88;5118256;28;1068;-55
2021/08/17 10:01:29;;;;;;;;;;;;;;;20.91;52.14;100534.59;5118325;28;947;-52
2021/08/17 10:03:55;;;;;;;;;;;;;;;20.77;52.47;100538.16;5100546;28;797;-55
2021/08/17 10:06:20;;;;;;;;;;;;;;;20.77;52.51;100526.31;5099660;28;1043;-53
2021/08/17 10:08:46;;;;;;;;;;;;;;;20.99;51.75;100533.84;5099689;28;932;-54
2021/08/17 10:11:12;;;;;;;;;;;;;;;20.73;52.61;100526.09;5117797;28;1067;-51
2021/08/17 10:13:38;;;;;;;;;;;;;;;20.68;52.73;100532.53;5099501;28;1332;-56
2021/08/17 10:16:04;;;;;;;;;;;;;;;20.82;52.27;100528.97;5118190;28;1986;-52
2021/08/17 10:18:32;;;;;;;;;;;;;;;20.79;53.02;100524.88;5117620;28;958;-52
2021/08/17 10:20:58;;;;;;;;;;;;;;;20.73;52.98;100525.28;5099491;28;1184;-54
2021/08/17 10:23:24;;;;;;;;;;;;;;;20.66;53.12;100529.25;5100253;28;835;-54
2021/08/17 10:25:49;;;;;;;;;;;;;;;20.71;53.10;100528.34;5118062;28;743;-51
2021/08/17 10:28:21;;;;;;;;;;;;;;;20.82;52.78;100524.25;5117958;28;862;-54
2021/08/17 10:30:47;;;;;;;;;;;;;;;20.59;53.40;100525.25;5118004;28;865;-52
2021/08/17 10:33:12;;;;;;;;;;;;;;;20.68;53.12;100528.97;5116967;28;986;-46
2021/08/17 10:35:47;;;;;;;;;;;;;;;20.69;53.11;100522.31;5099508;28;1917;-54
2021/08/17 10:38:12;;;;;;;;;;;;;;;20.62;53.24;100524.63;5118158;28;859;-55
2021/08/17 10:40:47;;;;;;;;;;;;;;;20.57;53.45;100525.56;5117922;28;957;-54
2021/08/17 10:43:12;;;;;;;;;;;;;;;20.64;53.25;100523.19;5117352;28;724;-53
2021/08/17 10:45:38;;;;;;;;;;;;;;;20.84;52.55;100516.44;5117703;28;736;-54
2021/08/17 10:48:07;;;;;;;;;;;;;;;20.83;52.43;100525.06;5098989;28;1435;-54
2021/08/17 10:50:32;;;;;;;;;;;;;;;20.90;52.63;100519.97;5117296;28;815;-55
2021/08/17 10:52:58;;;;;;;;;;;;;;;20.77;52.75;100516.06;5117327;28;862;-55
2021/08/17 10:55:23;;;;;;;;;;;;;;;20.75;53.11;100510.03;5117531;28;1917;-54
2021/08/17 10:57:50;;;;;;;;;;;;;;;20.83;52.85;100509.31;5117698;28;811;-51
2021/08/17 11:00:34;;;;;;;;;;;;;;;20.78;53.07;100517.69;5117285;28;731;-45
2021/08/17 11:03:00;;;;;;;;;;;;;;;20.81;52.85;100510.75;5116900;28;1025;-47
2021/08/17 11:05:44;;;;;;;;;;;;;;;20.87;52.58;100503.97;5099060;28;815;-51
2021/08/17 11:08:28;;;;;;;;;;;;;;;20.71;53.21;100506.25;5117135;28;1244;-46
2021/08/17 11:10:53;;;;;;;;;;;;;;;20.75;53.00;100501.75;5117112;28;875;-54
2021/08/17 11:13:23;;;;;;;;;;;;;;;20.88;52.53;100494.56;5116865;28;780;-53
2021/08/17 11:16:04;;;;;;;;;;;;;;;20.78;53.05;100506.66;5117707;28;1979;-53
2021/08/17 11:18:29;;;;;;;;;;;;;;;21.02;52.44;100497.28;5116818;28;990;-54
2021/08/17 11:20:58;;;;;;;;;;;;;;;20.99;52.38;100492.41;5116812;28;812;-55
2021/08/17 11:23:23;;;;;;;;;;;;;;;20.85;52.95;100492.41;5116945;28;766;-55
2021/08/17 11:25:48;;;;;;;;;;;;;;;20.78;53.23;100495.59;5116917;28;850;-55
2021/08/17 11:28:14;;;;;;;;;;;;;;;20.76;53.07;100491.50;5116767;28;740;-55
2021/08/17 11:30:39;;;;;;;;;;;;;;;20.92;52.78;100487.28;5098810;28;1162;-55
2021/08/17 11:33:05;;;;;;;;;;;;;;;20.90;52.85;100491.47;5098174;28;946;-55
2021/08/17 11:35:30;;;;;;;;;;;;;;;20.99;52.65;100495.16;5116613;28;1914;-53
2021/08/17 11:37:56;;;;;;;;;;;;;;;20.75;53.52;100485.16;5116810;28;783;-54
2021/08/17 11:40:22;;;;;;;;;;;;;;;20.97;52.74;100483.56;5117603;28;831;-55
2021/08/17 11:42:49;;;;;;;;;;;;;;;20.99;52.63;100481.34;5116138;28;847;-54
2021/08/17 11:45:15;;;;;;;;;;;;;;;20.90;52.83;100486.78;5117069;28;744;-53
2021/08/17 11:47:41;;;;;;;;;;;;;;;21.09;52.31;100474.75;5116483;28;958;-52
2021/08/17 11:50:07;;;;;;;;;;;;;;;20.99;52.65;100486.88;5116228;28;835;-51
2021/08/17 11:52:40;;;;;;;;;;;;;;;20.85;53.06;100473.88;5116875;28;779;-55
2021/08/17 11:55:05;;;;;;;;;;;;;;;21.01;52.69;100476.31;5116564;28;1909;-48
2021/08/17 11:57:31;;;;;;;;;;;;;;;21.12;52.36;100474.13;5116382;28;759;-56
2021/08/17 12:00:04;;;;;;;;;;;;;;;21.00;52.66;100471.94;5116936;28;751;-55
2021/08/17 12:02:34;;;;;;;;;;;;;;;21.10;52.37;100462.59;5102276;28;938;-54
2021/08/17 12:05:01;;;;;;;;;;;;;;;21.02;52.76;100472.41;5120314;28;798;-54
2021/08/17 12:07:27;;;;;;;;;;;;;;;20.99;52.70;100464.75;5099032;28;1020;-55
2021/08/17 12:09:53;;;;;;;;;;;;;;;21.00;52.68;100458.91;5100470;28;791;-55
2021/08/17 12:12:19;;;;;;;;;;;;;;;21.03;52.65;100460.25;5098775;28;1498;-50
2021/08/17 12:14:44;;;;;;;;;;;;;;;21.04;52.75;100456.31;5100122;28;1913;-54
2021/08/17 12:17:10;;;;;;;;;;;;;;;21.01;52.70;100449.50;5099901;28;938;-50
2021/08/17 12:19:43;;;;;;;;;;;;;;;20.95;52.73;100452.69;5099782;28;855;-53
2021/08/17 12:22:22;;;;;;;;;;;;;;;20.97;52.68;100442.13;5100176;28;811;-49
2021/08/17 12:24:47;;;;;;;;;;;;;;;20.83;52.45;100445.75;5099617;28;1158;-45
2021/08/17 12:27:19;;;;;;;;;;;;;;;20.90;51.82;100441.72;5099825;28;740;-48
2021/08/17 12:29:44;;;;;;;;;;;;;;;20.87;51.65;100442.34;5098328;28;1027;-48
2021/08/17 12:32:28;;;;;;;;;;;;;;;20.70;51.82;100443.00;5099235;28;1044;-49
2021/08/17 12:34:54;;;;;;;;;;;;;;;20.74;51.55;100433.78;5098003;28;1913;-46
2021/08/17 12:37:29;;;;;;;;;;;;;;;20.63;51.65;100432.34;5099799;28;1047;-45
2021/08/17 12:39:55;;;;;;;;;;;;;;;20.61;51.42;100429.91;5099801;28;763;-47
2021/08/17 12:42:21;;;;;;;;;;;;;;;20.55;51.72;100424.78;5099221;28;763;-53
2021/08/17 12:44:48;;;;;;;;;;;;;;;20.51;51.74;100428.16;5099670;28;842;-46
2021/08/17 12:47:14;;;;;;;;;;;;;;;20.36;51.96;100417.44;5099566;28;942;-55
2021/08/17 12:49:43;;;;;;;;;;;;;;;20.51;51.48;100419.88;5099398;28;807;-55
2021/08/17 12:52:22;;;;;;;;;;;;;;;20.82;50.73;100416.47;5099925;28;756;-49